createdAt,value
2022-12-25T00:00:06.300Z,98.80
2022-12-25T00:02:33.841Z,98.54
2022-12-25T00:05:03.537Z,98.96
2022-12-25T00:07:30.909Z,99.07
2022-12-25T00:09:58.221Z,98.94
2022-12-25T00:12:25.566Z,99.42
2022-12-25T00:14:54.135Z,99.39
2022-12-25T00:17:22.941Z,98.91
2022-12-25T00:19:50.275Z,98.85
2022-12-25T00:22:17.631Z,98.46
2022-12-25T00:24:45.013Z,98.64
2022-12-25T00:27:12.389Z,98.80
2022-12-25T00:29:39.750Z,98.46
2022-12-25T00:32:07.300Z,98.71
2022-12-25T00:34:36.102Z,97.37
2022-12-25T00:37:03.431Z,97.38
2022-12-25T00:39:30.947Z,97.73
2022-12-25T00:42:15.578Z,97.61
2022-12-25T00:44:42.981Z,97.69
2022-12-25T00:47:10.386Z,97.78
2022-12-25T00:49:39.255Z,97.88
2022-12-25T00:52:06.769Z,97.09
2022-12-25T00:54:34.131Z,96.86
2022-12-25T00:57:01.636Z,96.21
2022-12-25T00:59:32.356Z,96.87
2022-12-25T01:02:20.741Z,96.40
2022-12-25T01:04:50.207Z,96.25
2022-12-25T01:07:17.792Z,95.43
2022-12-25T01:10:03.250Z,96.20
2022-12-25T01:12:30.915Z,96.11
2022-12-25T01:14:58.233Z,95.76
2022-12-25T01:17:25.673Z,96.31
2022-12-25T01:19:54.357Z,95.30
2022-12-25T01:22:21.673Z,96.09
2022-12-25T01:24:49.007Z,96.10
2022-12-25T01:27:16.370Z,95.79
2022-12-25T01:29:43.725Z,95.37
2022-12-25T01:32:11.142Z,95.08
2022-12-25T01:34:38.755Z,95.12
2022-12-25T01:37:07.982Z,95.71
2022-12-25T01:39:35.380Z,95.53
2022-12-25T01:42:02.758Z,94.87
2022-12-25T01:45:16.018Z,94.85
2022-12-25T01:47:43.379Z,95.14
2022-12-25T01:50:10.789Z,95.38
2022-12-25T01:52:39.519Z,95.39
2022-12-25T01:55:09.945Z,95.03
2022-12-25T01:57:38.609Z,95.31
2022-12-25T02:00:07.894Z,95.46
2022-12-25T02:02:35.772Z,95.24
2022-12-25T02:05:06.078Z,95.14
2022-12-25T02:07:35.127Z,95.10
2022-12-25T02:10:04.266Z,94.80
2022-12-25T02:12:33.629Z,95.19
2022-12-25T02:15:05.960Z,94.84
2022-12-25T02:17:37.126Z,95.34
2022-12-25T02:20:38.074Z,94.78
2022-12-25T02:23:18.177Z,95.17
2022-12-25T02:25:55.798Z,95.23
2022-12-25T02:28:27.395Z,95.01
2022-12-25T02:30:57.819Z,95.02
2022-12-25T02:33:49.931Z,95.25
2022-12-25T02:36:22.073Z,95.04
2022-12-25T02:39:11.147Z,95.05
2022-12-25T02:41:39.989Z,95.17
2022-12-25T02:44:28.710Z,95.38
2022-12-25T02:47:14.037Z,95.07
2022-12-25T02:50:00.291Z,95.23
2022-12-25T02:52:46.172Z,95.43
2022-12-25T02:55:33.510Z,95.51
2022-12-25T02:58:21.393Z,95.08
2022-12-25T03:01:10.626Z,95.45
2022-12-25T03:03:58.714Z,95.44
2022-12-25T03:06:46.615Z,94.98
2022-12-25T03:09:35.714Z,95.39
2022-12-25T03:12:09.390Z,95.38
2022-12-25T03:14:54.472Z,94.87
2022-12-25T03:17:23.182Z,95.19
2022-12-25T03:20:08.230Z,94.91
2022-12-25T03:22:55.045Z,94.70
2022-12-25T03:25:39.735Z,95.20
2022-12-25T03:28:07.238Z,94.94
2022-12-25T03:31:00.734Z,94.97
2022-12-25T03:33:44.917Z,94.75
2022-12-25T03:36:16.613Z,94.96
2022-12-25T03:39:01.610Z,94.54
2022-12-25T03:41:52.822Z,95.38
2022-12-25T03:44:42.546Z,95.56
2022-12-25T03:47:34.507Z,95.88
2022-12-25T03:50:24.007Z,95.16
2022-12-25T03:53:10.174Z,95.68
2022-12-25T03:55:54.561Z,96.00
2022-12-25T03:58:42.201Z,95.76
2022-12-25T04:01:27.021Z,95.81
2022-12-25T04:04:12.090Z,95.90
2022-12-25T04:06:58.600Z,96.39
2022-12-25T04:09:43.754Z,96.02
2022-12-25T04:12:29.056Z,95.57
2022-12-25T04:15:13.759Z,95.68
2022-12-25T04:17:59.116Z,95.61
2022-12-25T04:20:43.711Z,95.72
2022-12-25T04:23:30.205Z,95.87
2022-12-25T04:26:16.023Z,95.95
2022-12-25T04:29:00.627Z,95.94
2022-12-25T04:31:45.496Z,96.02
2022-12-25T04:34:30.234Z,95.94
2022-12-25T04:36:57.625Z,96.35
2022-12-25T04:39:26.324Z,95.82
2022-12-25T04:41:53.702Z,96.20
2022-12-25T04:44:21.018Z,96.76
2022-12-25T04:46:48.418Z,96.22
2022-12-25T04:49:15.804Z,96.18
2022-12-25T04:51:43.146Z,96.60
2022-12-25T04:54:10.497Z,95.85
2022-12-25T04:56:45.227Z,96.25
2022-12-25T04:59:13.268Z,95.61
2022-12-25T05:01:40.714Z,95.83
2022-12-25T05:04:08.238Z,95.86
2022-12-25T05:06:35.559Z,95.91
2022-12-25T05:09:02.933Z,95.76
2022-12-25T05:11:30.282Z,96.15
2022-12-25T05:13:59.106Z,96.20
2022-12-25T05:16:26.808Z,95.94
2022-12-25T05:18:54.203Z,96.27
2022-12-25T05:21:22.171Z,96.62
2022-12-25T05:23:50.734Z,96.49
2022-12-25T05:26:20.205Z,96.58
2022-12-25T05:28:47.642Z,96.67
2022-12-25T05:31:16.508Z,96.75
2022-12-25T05:33:43.929Z,96.53
2022-12-25T05:36:12.913Z,96.98
2022-12-25T05:38:40.605Z,96.66
2022-12-25T05:41:08.010Z,96.92
2022-12-25T05:43:35.326Z,96.97
2022-12-25T05:46:06.098Z,97.95
2022-12-25T05:48:36.763Z,98.40
2022-12-25T05:51:06.002Z,98.78
2022-12-25T05:53:33.549Z,98.97
2022-12-25T05:56:02.341Z,98.89
2022-12-25T05:58:29.830Z,98.82
2022-12-25T06:00:57.387Z,98.41
2022-12-25T06:03:25.219Z,98.91
2022-12-25T06:05:54.252Z,98.67
2022-12-25T06:08:21.667Z,98.63
2022-12-25T06:10:49.038Z,98.44
2022-12-25T06:13:16.622Z,98.46
2022-12-25T06:15:44.048Z,98.72
2022-12-25T06:18:11.387Z,99.10
2022-12-25T06:20:41.093Z,98.28
2022-12-25T06:23:09.856Z,97.89
2022-12-25T06:25:42.206Z,97.75
2022-12-25T06:28:09.610Z,98.21
2022-12-25T06:30:36.948Z,99.04
2022-12-25T06:33:04.342Z,99.79
2022-12-25T06:35:31.678Z,100.00
2022-12-25T06:37:59.010Z,100.00
2022-12-25T06:40:27.683Z,100.00
2022-12-25T06:42:55.005Z,100.00
2022-12-25T06:45:22.378Z,100.00
2022-12-25T06:47:49.766Z,100.00
2022-12-25T06:50:17.122Z,100.00
2022-12-25T06:52:44.457Z,100.00
2022-12-25T06:55:11.835Z,100.00
2022-12-25T06:57:40.487Z,100.00
2022-12-25T07:00:09.261Z,100.00
2022-12-25T07:02:38.408Z,100.00
2022-12-25T07:05:06.625Z,100.00
2022-12-25T07:07:33.961Z,100.00
2022-12-25T07:10:01.330Z,100.00
2022-12-25T07:12:28.693Z,100.00
2022-12-25T07:14:57.585Z,100.00
2022-12-25T07:17:25.259Z,100.00
2022-12-25T07:19:52.624Z,100.00
2022-12-25T07:22:20.046Z,100.00
2022-12-25T07:24:47.404Z,100.00
2022-12-25T07:27:14.739Z,100.00
2022-12-25T07:29:42.105Z,100.00
2022-12-25T07:32:10.821Z,100.00
2022-12-25T07:34:38.154Z,100.00
2022-12-25T07:37:05.487Z,100.00
2022-12-25T07:39:33.986Z,100.00
2022-12-25T07:42:01.338Z,100.00
2022-12-25T07:44:28.970Z,100.00
2022-12-25T07:46:56.307Z,100.00
2022-12-25T07:49:24.994Z,100.00
2022-12-25T07:51:52.323Z,100.00
2022-12-25T07:54:20.658Z,100.00
2022-12-25T07:56:51.539Z,100.00
2022-12-25T07:59:20.444Z,100.00
2022-12-25T08:01:47.937Z,100.00
2022-12-25T08:04:15.373Z,100.00
2022-12-25T08:06:44.078Z,100.00
2022-12-25T08:09:13.214Z,100.00
2022-12-25T08:11:41.185Z,100.00
2022-12-25T08:14:09.052Z,100.00
2022-12-25T08:16:39.604Z,100.00
2022-12-25T08:19:07.079Z,100.00
2022-12-25T08:21:34.573Z,100.00
2022-12-25T08:24:03.499Z,100.00
2022-12-25T08:26:31.154Z,100.00
2022-12-25T08:28:58.763Z,100.00
2022-12-25T08:31:27.984Z,100.00
2022-12-25T08:33:57.330Z,100.00
2022-12-25T08:36:25.409Z,100.00
2022-12-25T08:38:57.003Z,100.00
2022-12-25T08:41:29.330Z,100.00
2022-12-25T08:43:56.669Z,100.00
2022-12-25T08:46:24.210Z,100.00
2022-12-25T08:48:51.696Z,100.00
2022-12-25T08:51:21.680Z,100.00
2022-12-25T08:53:50.169Z,100.00
2022-12-25T08:56:18.370Z,100.00
2022-12-25T08:58:47.445Z,100.00
2022-12-25T09:01:15.340Z,100.00
2022-12-25T09:03:43.332Z,100.00
2022-12-25T09:06:13.541Z,100.00
2022-12-25T09:08:48.140Z,100.00
2022-12-25T09:11:17.496Z,100.00
2022-12-25T09:13:44.851Z,100.00
2022-12-25T09:16:15.045Z,100.00
2022-12-25T09:18:42.502Z,100.00
2022-12-25T09:21:12.767Z,100.00
2022-12-25T09:23:40.536Z,100.00
2022-12-25T09:26:11.021Z,100.00
2022-12-25T09:28:38.429Z,100.00
2022-12-25T09:31:06.317Z,100.00
2022-12-25T09:33:35.289Z,100.00
2022-12-25T09:36:05.019Z,100.00
2022-12-25T09:38:33.116Z,100.00
2022-12-25T09:41:02.632Z,100.00
2022-12-25T09:43:32.142Z,100.00
2022-12-25T09:46:00.591Z,100.00
2022-12-25T09:48:28.965Z,100.00
2022-12-25T09:51:00.946Z,100.00
2022-12-25T09:53:32.659Z,100.00
2022-12-25T09:56:04.331Z,100.00
2022-12-25T09:58:34.242Z,100.00
2022-12-25T10:01:05.039Z,100.00
2022-12-25T10:03:43.113Z,100.00
2022-12-25T10:06:18.482Z,100.00
2022-12-25T10:08:58.094Z,100.00
2022-12-25T10:11:37.192Z,100.00
2022-12-25T10:14:13.674Z,100.00
2022-12-25T10:16:47.333Z,100.00
2022-12-25T10:19:36.329Z,100.00
2022-12-25T10:22:11.103Z,100.00
2022-12-25T10:24:42.999Z,100.00
2022-12-25T10:27:15.831Z,100.00
2022-12-25T10:29:45.378Z,100.00
2022-12-25T10:32:12.711Z,100.00
2022-12-25T10:34:43.010Z,100.00
2022-12-25T10:37:12.947Z,100.00
2022-12-25T10:39:46.056Z,100.00
2022-12-25T10:42:31.447Z,100.00
2022-12-25T10:45:00.619Z,100.00
2022-12-25T10:47:29.924Z,100.00
2022-12-25T10:49:57.534Z,100.00
2022-12-25T10:52:28.585Z,100.00
2022-12-25T10:54:56.892Z,100.00
2022-12-25T10:57:25.988Z,100.00
2022-12-25T10:59:56.746Z,100.00
2022-12-25T11:02:26.512Z,100.00
2022-12-25T11:05:02.966Z,100.00
2022-12-25T11:07:32.072Z,100.00
2022-12-25T11:10:05.539Z,100.00
2022-12-25T11:12:37.128Z,100.00
2022-12-25T11:15:06.623Z,100.00
2022-12-25T11:17:33.981Z,100.00
2022-12-25T11:20:02.091Z,100.00
2022-12-25T11:22:29.641Z,100.00
2022-12-25T11:24:58.282Z,100.00
2022-12-25T11:27:27.831Z,100.00
2022-12-25T11:29:58.811Z,100.00
2022-12-25T11:32:30.190Z,100.00
2022-12-25T11:34:58.513Z,100.00
2022-12-25T11:37:30.539Z,100.00
2022-12-25T11:39:59.321Z,100.00
2022-12-25T11:42:28.414Z,100.00
2022-12-25T11:44:59.425Z,100.00
2022-12-25T11:47:29.987Z,100.00
2022-12-25T11:50:01.222Z,100.00
2022-12-25T11:52:32.894Z,100.00
2022-12-25T11:55:06.505Z,100.00
2022-12-25T11:57:34.120Z,100.00
2022-12-25T12:00:06.584Z,100.00
2022-12-25T12:02:37.896Z,100.00
2022-12-25T12:05:12.952Z,100.00
2022-12-25T12:07:52.478Z,100.00
2022-12-25T12:10:25.626Z,100.00
2022-12-25T12:12:56.957Z,100.00
2022-12-25T12:15:29.157Z,100.00
2022-12-25T12:17:56.956Z,100.00
2022-12-25T12:20:30.272Z,100.00
2022-12-25T12:22:58.068Z,100.00
2022-12-25T12:25:27.371Z,100.00
2022-12-25T12:28:02.838Z,100.00
2022-12-25T12:30:34.628Z,100.00
2022-12-25T12:33:04.359Z,100.00
2022-12-25T12:35:34.020Z,100.00
2022-12-25T12:38:04.517Z,100.00
2022-12-25T12:40:35.247Z,100.00
2022-12-25T12:43:03.204Z,100.00
2022-12-25T12:45:32.212Z,100.00
2022-12-25T12:47:59.706Z,100.00
2022-12-25T12:50:39.586Z,100.00
2022-12-25T12:53:29.201Z,100.00
2022-12-25T12:56:08.972Z,100.00
2022-12-25T12:58:37.732Z,100.00
2022-12-25T13:01:15.063Z,100.00
2022-12-25T13:04:14.383Z,100.00
2022-12-25T13:06:44.465Z,100.00
2022-12-25T13:09:23.885Z,100.00
2022-12-25T13:11:52.863Z,100.00
2022-12-25T13:14:22.611Z,100.00
2022-12-25T13:16:52.562Z,100.00
2022-12-25T13:19:22.661Z,100.00
2022-12-25T13:21:57.499Z,100.00
2022-12-25T13:24:26.612Z,100.00
2022-12-25T13:26:55.301Z,100.00
2022-12-25T13:29:30.826Z,100.00
2022-12-25T13:31:59.091Z,100.00
2022-12-25T13:34:31.582Z,100.00
2022-12-25T13:36:59.335Z,100.00
2022-12-25T13:39:27.098Z,100.00
2022-12-25T13:42:09.754Z,100.00
2022-12-25T13:44:45.953Z,100.00
2022-12-25T13:47:24.748Z,100.00
2022-12-25T13:49:53.561Z,100.00
2022-12-25T13:52:23.534Z,100.00
2022-12-25T13:54:59.148Z,100.00
2022-12-25T13:57:31.521Z,100.00
2022-12-25T13:59:59.398Z,100.00
2022-12-25T14:02:31.596Z,100.00
2022-12-25T14:04:59.141Z,100.00
2022-12-25T14:07:27.017Z,100.00
2022-12-25T14:09:58.644Z,100.00
2022-12-25T14:12:26.721Z,100.00
2022-12-25T14:14:55.941Z,100.00
2022-12-25T14:17:23.400Z,100.00
2022-12-25T14:20:01.020Z,100.00
2022-12-25T14:22:34.378Z,100.00
2022-12-25T14:25:01.742Z,100.00
2022-12-25T14:27:30.232Z,100.00
2022-12-25T14:30:00.052Z,100.00
2022-12-25T14:32:29.518Z,100.00
2022-12-25T14:34:59.041Z,100.00
2022-12-25T14:37:29.138Z,100.00
2022-12-25T14:39:58.381Z,100.00
2022-12-25T14:42:27.592Z,100.00
2022-12-25T14:45:03.059Z,100.00
2022-12-25T14:47:30.996Z,100.00
2022-12-25T14:49:58.562Z,100.00
2022-12-25T14:52:29.333Z,100.00
2022-12-25T14:55:01.522Z,100.00
2022-12-25T14:57:31.753Z,100.00
2022-12-25T15:00:05.175Z,100.00
2022-12-25T15:02:44.601Z,100.00
2022-12-25T15:05:29.948Z,100.00
2022-12-25T15:08:03.011Z,100.00
2022-12-25T15:13:21.725Z,100.00
2022-12-25T15:15:53.392Z,100.00
2022-12-25T15:18:22.324Z,100.00
2022-12-25T15:20:52.232Z,100.00
2022-12-25T15:23:20.602Z,100.00
2022-12-25T15:25:50.999Z,100.00
2022-12-25T15:28:18.475Z,100.00
2022-12-25T15:30:45.950Z,100.00
2022-12-25T15:33:16.349Z,100.00
2022-12-25T15:35:44.214Z,100.00
2022-12-25T15:38:12.203Z,100.00
2022-12-25T15:40:40.068Z,100.00
2022-12-25T15:43:14.599Z,100.00
2022-12-25T15:45:49.859Z,100.00
2022-12-25T15:48:18.516Z,100.00
2022-12-25T15:50:46.685Z,100.00
2022-12-25T15:53:14.234Z,100.00
2022-12-25T15:55:41.713Z,100.00
2022-12-25T15:58:12.029Z,100.00
2022-12-25T16:00:39.355Z,100.00
2022-12-25T16:03:06.947Z,100.00
2022-12-25T16:05:36.180Z,100.00
2022-12-25T16:08:03.558Z,100.00
2022-12-25T16:10:36.540Z,100.00
2022-12-25T16:13:05.923Z,100.00
2022-12-25T16:15:33.438Z,100.00
2022-12-25T16:18:00.888Z,100.00
2022-12-25T16:20:28.715Z,100.00
2022-12-25T16:22:57.378Z,100.00
2022-12-25T16:25:24.954Z,100.00
2022-12-25T16:27:52.297Z,100.00
2022-12-25T16:30:19.960Z,100.00
2022-12-25T16:32:50.116Z,100.00
2022-12-25T16:35:17.861Z,100.00
2022-12-25T16:37:45.245Z,100.00
2022-12-25T16:40:14.182Z,100.00
2022-12-25T16:42:41.488Z,100.00
2022-12-25T16:45:09.794Z,100.00
2022-12-25T16:47:37.171Z,100.00
2022-12-25T16:50:05.877Z,100.00
2022-12-25T16:52:34.666Z,100.00
2022-12-25T16:55:02.517Z,100.00
2022-12-25T16:57:31.964Z,100.00
2022-12-25T16:59:59.922Z,100.00
2022-12-25T17:02:27.428Z,100.00
2022-12-25T17:04:54.918Z,100.00
2022-12-25T17:07:22.354Z,100.00
2022-12-25T17:09:50.471Z,100.00
2022-12-25T17:12:18.171Z,100.00
2022-12-25T17:14:46.826Z,100.00
2022-12-25T17:17:14.234Z,100.00
2022-12-25T17:19:42.425Z,100.00
2022-12-25T17:22:09.765Z,100.00
2022-12-25T17:24:37.482Z,100.00
2022-12-25T17:27:08.423Z,100.00
2022-12-25T17:29:35.825Z,100.00
2022-12-25T17:32:04.476Z,100.00
2022-12-25T17:34:31.807Z,100.00
2022-12-25T17:36:59.174Z,100.00
2022-12-25T17:39:26.753Z,100.00
2022-12-25T17:41:54.117Z,100.00
2022-12-25T17:44:21.858Z,100.00
2022-12-25T17:46:49.706Z,100.00
2022-12-25T17:49:20.078Z,100.00
2022-12-25T17:51:47.885Z,100.00
2022-12-25T17:54:15.291Z,100.00
2022-12-25T17:56:47.866Z,100.00
2022-12-25T17:59:18.765Z,100.00
2022-12-25T18:01:48.005Z,100.00
2022-12-25T18:04:15.572Z,100.00
2022-12-25T18:06:44.263Z,100.00
2022-12-25T18:09:13.091Z,100.00
2022-12-25T18:11:42.495Z,100.00
2022-12-25T18:14:13.030Z,100.00
2022-12-25T18:16:43.127Z,100.00
2022-12-25T18:19:10.572Z,100.00
2022-12-25T18:21:38.201Z,100.00
2022-12-25T18:24:08.000Z,100.00
2022-12-25T18:26:35.807Z,100.00
2022-12-25T18:29:04.134Z,100.00
2022-12-25T18:31:31.788Z,100.00
2022-12-25T18:33:59.794Z,100.00
2022-12-25T18:36:28.160Z,100.00
2022-12-25T18:38:56.193Z,100.00
2022-12-25T18:41:24.933Z,100.00
2022-12-25T18:43:55.580Z,100.00
2022-12-25T18:46:24.064Z,100.00
2022-12-25T18:48:52.063Z,100.00
2022-12-25T18:51:19.641Z,100.00
2022-12-25T18:53:47.034Z,100.00
2022-12-25T18:56:17.033Z,100.00
2022-12-25T18:58:46.169Z,100.00
2022-12-25T19:01:15.278Z,100.00
2022-12-25T19:03:42.751Z,100.00
2022-12-25T19:06:10.430Z,100.00
2022-12-25T19:08:37.757Z,100.00
2022-12-25T19:11:08.850Z,100.00
2022-12-25T19:13:36.315Z,100.00
2022-12-25T19:16:05.935Z,100.00
2022-12-25T19:18:33.270Z,100.00
2022-12-25T19:21:03.421Z,100.00
2022-12-25T19:23:30.849Z,100.00
2022-12-25T19:25:58.196Z,100.00
2022-12-25T19:28:25.946Z,100.00
2022-12-25T19:30:54.009Z,100.00
2022-12-25T19:33:22.934Z,100.00
2022-12-25T19:35:50.719Z,100.00
2022-12-25T19:38:19.361Z,100.00
2022-12-25T19:41:00.120Z,100.00
2022-12-25T19:43:28.265Z,100.00
2022-12-25T19:45:55.926Z,100.00
2022-12-25T19:48:25.224Z,100.00
2022-12-25T19:50:52.651Z,100.00
2022-12-25T19:53:23.433Z,100.00
2022-12-25T19:55:52.123Z,100.00
2022-12-25T19:58:19.530Z,100.00
2022-12-25T20:00:46.993Z,100.00
2022-12-25T20:03:14.385Z,100.00
2022-12-25T20:05:45.137Z,100.00
2022-12-25T20:08:12.499Z,100.00
2022-12-25T20:10:43.350Z,100.00
2022-12-25T20:13:10.777Z,100.00
2022-12-25T20:15:38.350Z,100.00
2022-12-25T20:18:05.976Z,100.00
2022-12-25T20:20:33.302Z,100.00
2022-12-25T20:23:04.883Z,100.00
2022-12-25T20:25:32.235Z,100.00
2022-12-25T20:27:59.550Z,100.00
2022-12-25T20:30:26.877Z,100.00
2022-12-25T20:32:55.138Z,100.00
2022-12-25T20:35:22.465Z,100.00
2022-12-25T20:37:49.941Z,100.00
2022-12-25T20:40:19.054Z,100.00
2022-12-25T20:42:46.544Z,100.00
2022-12-25T20:45:13.886Z,100.00
2022-12-25T20:47:41.216Z,100.00
2022-12-25T20:50:09.060Z,100.00
2022-12-25T20:52:36.370Z,100.00
2022-12-25T20:55:03.768Z,100.00
2022-12-25T20:57:32.428Z,100.00
2022-12-25T20:59:59.741Z,100.00
2022-12-25T21:02:34.548Z,100.00
2022-12-25T21:05:04.439Z,100.00
2022-12-25T21:07:31.767Z,100.00
2022-12-25T21:10:00.661Z,100.00
2022-12-25T21:12:27.994Z,100.00
2022-12-25T21:14:56.662Z,100.00
2022-12-25T21:17:24.091Z,100.00
2022-12-25T21:19:51.434Z,100.00
2022-12-25T21:22:18.777Z,100.00
2022-12-25T21:24:46.117Z,100.00
2022-12-25T21:27:13.429Z,100.00
2022-12-25T21:29:40.757Z,100.00
2022-12-25T21:32:26.898Z,100.00
2022-12-25T21:34:54.223Z,100.00
2022-12-25T21:37:21.552Z,100.00
2022-12-25T21:39:49.920Z,100.00
2022-12-25T21:42:17.267Z,100.00
2022-12-25T21:44:44.699Z,100.00
2022-12-25T21:47:13.436Z,100.00
2022-12-25T21:49:58.193Z,100.00
2022-12-25T21:52:25.559Z,100.00
2022-12-25T21:54:53.505Z,100.00
2022-12-25T21:57:21.001Z,100.00
2022-12-25T21:59:49.024Z,100.00
2022-12-25T22:02:17.871Z,100.00
2022-12-25T22:04:45.347Z,100.00
2022-12-25T22:07:18.367Z,100.00
2022-12-25T22:09:46.714Z,100.00
2022-12-25T22:12:34.301Z,100.00
2022-12-25T22:15:06.361Z,100.00
2022-12-25T22:17:54.838Z,100.00
2022-12-25T22:20:24.003Z,100.00
2022-12-25T22:22:51.861Z,100.00
2022-12-25T22:25:23.114Z,100.00
2022-12-25T22:27:51.018Z,100.00
2022-12-25T22:30:22.851Z,100.00
2022-12-25T22:32:59.142Z,100.00
2022-12-25T22:35:26.837Z,100.00
2022-12-25T22:37:54.631Z,100.00
2022-12-25T22:40:22.169Z,100.00
2022-12-25T22:42:49.494Z,100.00
2022-12-25T22:45:16.950Z,100.00
2022-12-25T22:47:44.283Z,100.00
2022-12-25T22:50:14.537Z,100.00
2022-12-25T22:52:42.174Z,100.00
2022-12-25T22:55:10.460Z,100.00
2022-12-25T22:57:37.800Z,100.00
2022-12-25T23:00:08.642Z,100.00
2022-12-25T23:02:36.178Z,100.00
2022-12-25T23:05:03.902Z,100.00
2022-12-25T23:07:32.554Z,100.00
2022-12-25T23:09:59.999Z,100.00
2022-12-25T23:12:44.999Z,100.00
2022-12-25T23:15:12.385Z,100.00
2022-12-25T23:17:57.286Z,100.00
2022-12-25T23:20:42.059Z,100.00
2022-12-25T23:23:33.112Z,100.00
2022-12-25T23:26:09.317Z,100.00
2022-12-25T23:28:54.704Z,100.00
2022-12-25T23:31:25.883Z,100.00
2022-12-25T23:33:53.463Z,100.00
2022-12-25T23:36:20.823Z,100.00
2022-12-25T23:38:49.540Z,100.00
2022-12-25T23:41:16.882Z,100.00
2022-12-25T23:43:44.243Z,100.00
2022-12-25T23:46:11.663Z,100.00
2022-12-25T23:48:39.192Z,100.00
2022-12-25T23:51:07.754Z,100.00
2022-12-25T23:53:35.776Z,100.00
2022-12-25T23:56:05.592Z,100.00
2022-12-25T23:58:34.109Z,100.00
